sensor_id;sensor_type;location;lat;lon;timestamp;temperature;humidity
30134;DHT22;16946;49.984;10.672;2022-08-07T00:00:17;15.50;99.90
30134;DHT22;16946;49.984;10.672;2022-08-07T00:00:47;15.50;99.90
30134;DHT22;16946;49.984;10.672;2022-08-07T00:01:19;15.50;99.90
30134;DHT22;16946;49.984;10.672;2022-08-07T00:01:49;15.40;99.90
30134;DHT22;16946;49.984;10.672;2022-08-07T00:02:20;15.40;99.90
30134;DHT22;16946;49.984;10.672;2022-08-07T00:02:50;15.40;99.90
30134;DHT22;16946;49.984;10.672;2022-08-07T00:03:21;15.50;99.90
30134;DHT22;16946;49.984;10.672;2022-08-07T00:03:53;15.40;99.90
30134;DHT22;16946;49.984;10.672;2022-08-07T00:04:23;15.50;99.90
30134;DHT22;16946;49.984;10.672;2022-08-07T00:04:54;15.50;99.90
30134;DHT22;16946;49.984;10.672;2022-08-07T00:05:25;15.50;99.90
30134;DHT22;16946;49.984;10.672;2022-08-07T00:05:56;15.50;99.90
30134;DHT22;16946;49.984;10.672;2022-08-07T00:06:27;15.60;99.90
30134;DHT22;16946;49.984;10.672;2022-08-07T00:06:57;15.50;99.90
30134;DHT22;16946;49.984;10.672;2022-08-07T00:07:28;15.60;99.90
30134;DHT22;16946;49.984;10.672;2022-08-07T00:07:59;15.60;99.90
30134;DHT22;16946;49.984;10.672;2022-08-07T00:08:29;15.60;99.90
30134;DHT22;16946;49.984;10.672;2022-08-07T00:09:01;15.60;99.90
30134;DHT22;16946;49.984;10.672;2022-08-07T00:09:32;15.70;99.90
30134;DHT22;16946;49.984;10.672;2022-08-07T00:10:03;15.70;99.90
30134;DHT22;16946;49.984;10.672;2022-08-07T00:10:35;15.70;99.90
30134;DHT22;16946;49.984;10.672;2022-08-07T00:11:06;15.70;99.90
30134;DHT22;16946;49.984;10.672;2022-08-07T00:11:36;15.70;99.90
30134;DHT22;16946;49.984;10.672;2022-08-07T00:12:07;15.60;99.90
30134;DHT22;16946;49.984;10.672;2022-08-07T00:12:38;15.70;99.90
30134;DHT22;16946;49.984;10.672;2022-08-07T00:13:08;15.60;99.90
30134;DHT22;16946;49.984;10.672;2022-08-07T00:13:39;15.70;99.90
30134;DHT22;16946;49.984;10.672;2022-08-07T00:14:11;15.80;99.90
30134;DHT22;16946;49.984;10.672;2022-08-07T00:14:42;15.80;99.90
30134;DHT22;16946;49.984;10.672;2022-08-07T00:15:12;15.70;99.90
30134;DHT22;16946;49.984;10.672;2022-08-07T00:15:43;15.70;99.90
30134;DHT22;16946;49.984;10.672;2022-08-07T00:16:14;15.70;99.90
30134;DHT22;16946;49.984;10.672;2022-08-07T00:16:45;15.60;99.90
30134;DHT22;16946;49.984;10.672;2022-08-07T00:17:15;15.50;99.90
30134;DHT22;16946;49.984;10.672;2022-08-07T00:17:46;15.40;99.90
30134;DHT22;16946;49.984;10.672;2022-08-07T00:18:20;15.40;99.90
30134;DHT22;16946;49.984;10.672;2022-08-07T00:18:51;15.30;99.90
30134;DHT22;16946;49.984;10.672;2022-08-07T00:19:21;15.20;99.90
30134;DHT22;16946;49.984;10.672;2022-08-07T00:19:52;15.20;99.90
30134;DHT22;16946;49.984;10.672;2022-08-07T00:20:23;15.30;99.90
30134;DHT22;16946;49.984;10.672;2022-08-07T00:20:55;15.30;99.90
30134;DHT22;16946;49.984;10.672;2022-08-07T00:21:26;15.20;99.90
30134;DHT22;16946;49.984;10.672;2022-08-07T00:21:57;15.10;99.90
30134;DHT22;16946;49.984;10.672;2022-08-07T00:22:27;15.10;99.90
30134;DHT22;16946;49.984;10.672;2022-08-07T00:22:58;15.10;99.90
30134;DHT22;16946;49.984;10.672;2022-08-07T00:23:33;15.10;99.90
30134;DHT22;16946;49.984;10.672;2022-08-07T00:24:04;15.10;99.90
30134;DHT22;16946;49.984;10.672;2022-08-07T00:24:35;15.00;99.90
30134;DHT22;16946;49.984;10.672;2022-08-07T00:25:07;14.90;99.90
30134;DHT22;16946;49.984;10.672;2022-08-07T00:25:37;14.90;99.90
30134;DHT22;16946;49.984;10.672;2022-08-07T00:26:09;14.90;99.90
30134;DHT22;16946;49.984;10.672;2022-08-07T00:26:40;14.90;99.90
30134;DHT22;16946;49.984;10.672;2022-08-07T00:27:10;15.00;99.90
30134;DHT22;16946;49.984;10.672;2022-08-07T00:27:41;15.10;99.90
30134;DHT22;16946;49.984;10.672;2022-08-07T00:28:12;15.10;99.90
30134;DHT22;16946;49.984;10.672;2022-08-07T00:28:42;15.10;99.90
30134;DHT22;16946;49.984;10.672;2022-08-07T00:29:13;15.10;99.90
30134;DHT22;16946;49.984;10.672;2022-08-07T00:29:44;15.10;99.90
30134;DHT22;16946;49.984;10.672;2022-08-07T00:30:15;15.20;99.90
30134;DHT22;16946;49.984;10.672;2022-08-07T00:30:45;15.10;99.90
30134;DHT22;16946;49.984;10.672;2022-08-07T00:31:16;15.10;99.90
30134;DHT22;16946;49.984;10.672;2022-08-07T00:31:47;15.10;99.90
30134;DHT22;16946;49.984;10.672;2022-08-07T00:32:17;15.10;99.90
30134;DHT22;16946;49.984;10.672;2022-08-07T00:32:49;15.00;99.90
30134;DHT22;16946;49.984;10.672;2022-08-07T00:33:19;15.00;99.90
30134;DHT22;16946;49.984;10.672;2022-08-07T00:33:55;14.90;99.90
30134;DHT22;16946;49.984;10.672;2022-08-07T00:34:26;15.00;99.90
30134;DHT22;16946;49.984;10.672;2022-08-07T00:34:56;15.00;99.90
30134;DHT22;16946;49.984;10.672;2022-08-07T00:35:28;15.00;99.90
30134;DHT22;16946;49.984;10.672;2022-08-07T00:35:58;15.00;99.90
30134;DHT22;16946;49.984;10.672;2022-08-07T00:36:29;15.00;99.90
30134;DHT22;16946;49.984;10.672;2022-08-07T00:37:00;15.00;99.90
30134;DHT22;16946;49.984;10.672;2022-08-07T00:37:30;15.10;99.90
30134;DHT22;16946;49.984;10.672;2022-08-07T00:38:01;15.00;99.90
30134;DHT22;16946;49.984;10.672;2022-08-07T00:38:32;15.00;99.90
30134;DHT22;16946;49.984;10.672;2022-08-07T00:39:05;15.00;99.90
30134;DHT22;16946;49.984;10.672;2022-08-07T00:39:36;14.80;99.90
30134;DHT22;16946;49.984;10.672;2022-08-07T00:40:07;14.80;99.90
30134;DHT22;16946;49.984;10.672;2022-08-07T00:40:38;14.70;99.90
30134;DHT22;16946;49.984;10.672;2022-08-07T00:41:08;14.60;99.90
30134;DHT22;16946;49.984;10.672;2022-08-07T00:41:39;14.50;99.90
30134;DHT22;16946;49.984;10.672;2022-08-07T00:42:17;14.40;99.90
30134;DHT22;16946;49.984;10.672;2022-08-07T00:42:47;14.30;99.90
30134;DHT22;16946;49.984;10.672;2022-08-07T00:43:18;14.30;99.90
30134;DHT22;16946;49.984;10.672;2022-08-07T00:43:48;14.30;99.90
30134;DHT22;16946;49.984;10.672;2022-08-07T00:44:19;14.30;99.90
30134;DHT22;16946;49.984;10.672;2022-08-07T00:44:49;14.30;99.90
30134;DHT22;16946;49.984;10.672;2022-08-07T00:45:20;14.30;99.90
30134;DHT22;16946;49.984;10.672;2022-08-07T00:45:51;14.40;99.90
30134;DHT22;16946;49.984;10.672;2022-08-07T00:46:21;14.40;99.90
30134;DHT22;16946;49.984;10.672;2022-08-07T00:46:52;14.40;99.90
30134;DHT22;16946;49.984;10.672;2022-08-07T00:47:23;14.40;99.90
30134;DHT22;16946;49.984;10.672;2022-08-07T00:47:53;14.40;99.90
30134;DHT22;16946;49.984;10.672;2022-08-07T00:48:24;14.50;99.90
30134;DHT22;16946;49.984;10.672;2022-08-07T00:48:55;14.50;99.90
30134;DHT22;16946;49.984;10.672;2022-08-07T00:49:25;14.60;99.90
30134;DHT22;16946;49.984;10.672;2022-08-07T00:49:56;14.60;99.90
30134;DHT22;16946;49.984;10.672;2022-08-07T00:50:27;14.70;99.90
30134;DHT22;16946;49.984;10.672;2022-08-07T00:50:58;14.70;99.90
30134;DHT22;16946;49.984;10.672;2022-08-07T00:51:30;14.80;99.90
30134;DHT22;16946;49.984;10.672;2022-08-07T00:52:00;14.80;99.90
30134;DHT22;16946;49.984;10.672;2022-08-07T00:52:31;14.90;99.90
30134;DHT22;16946;49.984;10.672;2022-08-07T00:53:02;14.90;99.90
30134;DHT22;16946;49.984;10.672;2022-08-07T00:53:32;15.00;99.90
30134;DHT22;16946;49.984;10.672;2022-08-07T00:54:03;15.00;99.90
30134;DHT22;16946;49.984;10.672;2022-08-07T00:54:34;15.00;99.90
30134;DHT22;16946;49.984;10.672;2022-08-07T00:55:05;15.00;99.90
30134;DHT22;16946;49.984;10.672;2022-08-07T00:55:35;15.00;99.90
30134;DHT22;16946;49.984;10.672;2022-08-07T00:56:06;15.00;99.90
30134;DHT22;16946;49.984;10.672;2022-08-07T00:56:37;15.10;99.90
30134;DHT22;16946;49.984;10.672;2022-08-07T00:57:07;15.10;99.90
30134;DHT22;16946;49.984;10.672;2022-08-07T00:57:39;15.10;99.90
30134;DHT22;16946;49.984;10.672;2022-08-07T00:58:10;15.20;99.90
30134;DHT22;16946;49.984;10.672;2022-08-07T00:58:41;15.20;99.90
30134;DHT22;16946;49.984;10.672;2022-08-07T00:59:12;15.20;99.90
30134;DHT22;16946;49.984;10.672;2022-08-07T00:59:43;15.30;99.90
30134;DHT22;16946;49.984;10.672;2022-08-07T01:00:14;15.30;99.90
30134;DHT22;16946;49.984;10.672;2022-08-07T01:00:45;15.30;99.90
30134;DHT22;16946;49.984;10.672;2022-08-07T01:01:18;15.30;99.90
30134;DHT22;16946;49.984;10.672;2022-08-07T01:01:49;15.40;99.90
30134;DHT22;16946;49.984;10.672;2022-08-07T01:02:22;15.40;99.90
30134;DHT22;16946;49.984;10.672;2022-08-07T01:02:53;15.40;99.90
30134;DHT22;16946;49.984;10.672;2022-08-07T01:03:24;15.50;99.90
30134;DHT22;16946;49.984;10.672;2022-08-07T01:03:55;15.40;99.90
30134;DHT22;16946;49.984;10.672;2022-08-07T01:04:25;15.50;99.90
30134;DHT22;16946;49.984;10.672;2022-08-07T01:04:57;15.50;99.90
30134;DHT22;16946;49.984;10.672;2022-08-07T01:05:28;15.50;99.90
30134;DHT22;16946;49.984;10.672;2022-08-07T01:05:59;15.50;99.90
30134;DHT22;16946;49.984;10.672;2022-08-07T01:06:30;15.50;99.90
30134;DHT22;16946;49.984;10.672;2022-08-07T01:07:01;15.40;99.90
30134;DHT22;16946;49.984;10.672;2022-08-07T01:07:32;15.40;99.90
30134;DHT22;16946;49.984;10.672;2022-08-07T01:08:03;15.30;99.90
30134;DHT22;16946;49.984;10.672;2022-08-07T01:08:33;15.20;99.90
30134;DHT22;16946;49.984;10.672;2022-08-07T01:09:04;15.10;99.90
30134;DHT22;16946;49.984;10.672;2022-08-07T01:09:35;15.00;99.90
30134;DHT22;16946;49.984;10.672;2022-08-07T01:10:06;15.00;99.90
30134;DHT22;16946;49.984;10.672;2022-08-07T01:10:37;14.90;99.90
30134;DHT22;16946;49.984;10.672;2022-08-07T01:11:09;14.80;99.90
30134;DHT22;16946;49.984;10.672;2022-08-07T01:11:39;14.70;99.90
30134;DHT22;16946;49.984;10.672;2022-08-07T01:12:10;14.70;99.90
30134;DHT22;16946;49.984;10.672;2022-08-07T01:12:42;14.70;99.90
30134;DHT22;16946;49.984;10.672;2022-08-07T01:13:13;14.70;99.90
30134;DHT22;16946;49.984;10.672;2022-08-07T01:13:43;14.80;99.90
30134;DHT22;16946;49.984;10.672;2022-08-07T01:14:14;14.80;99.90
30134;DHT22;16946;49.984;10.672;2022-08-07T01:14:45;14.90;99.90
30134;DHT22;16946;49.984;10.672;2022-08-07T01:15:16;14.90;99.90
30134;DHT22;16946;49.984;10.672;2022-08-07T01:15:48;14.90;99.90
30134;DHT22;16946;49.984;10.672;2022-08-07T01:16:19;15.00;99.90
30134;DHT22;16946;49.984;10.672;2022-08-07T01:16:51;15.00;99.90
30134;DHT22;16946;49.984;10.672;2022-08-07T01:17:22;15.00;99.90
30134;DHT22;16946;49.984;10.672;2022-08-07T01:17:52;15.00;99.90
30134;DHT22;16946;49.984;10.672;2022-08-07T01:18:23;15.10;99.90
30134;DHT22;16946;49.984;10.672;2022-08-07T01:18:54;15.10;99.90
30134;DHT22;16946;49.984;10.672;2022-08-07T01:19:26;15.10;99.90
30134;DHT22;16946;49.984;10.672;2022-08-07T01:20:08;15.10;99.90
30134;DHT22;16946;49.984;10.672;2022-08-07T01:20:47;15.10;99.90
30134;DHT22;16946;49.984;10.672;2022-08-07T01:21:19;15.10;99.90
30134;DHT22;16946;49.984;10.672;2022-08-07T01:21:54;15.10;99.90
30134;DHT22;16946;49.984;10.672;2022-08-07T01:22:25;15.10;99.90
30134;DHT22;16946;49.984;10.672;2022-08-07T01:22:56;15.10;99.90
30134;DHT22;16946;49.984;10.672;2022-08-07T01:23:28;15.10;99.90
30134;DHT22;16946;49.984;10.672;2022-08-07T01:23:58;15.10;99.90
30134;DHT22;16946;49.984;10.672;2022-08-07T01:24:31;15.10;99.90
30134;DHT22;16946;49.984;10.672;2022-08-07T01:25:02;15.10;99.90
30134;DHT22;16946;49.984;10.672;2022-08-07T01:25:34;15.20;99.90
30134;DHT22;16946;49.984;10.672;2022-08-07T01:26:05;15.20;99.90
30134;DHT22;16946;49.984;10.672;2022-08-07T01:26:37;15.10;99.90
30134;DHT22;16946;49.984;10.672;2022-08-07T01:27:08;14.90;99.90
30134;DHT22;16946;49.984;10.672;2022-08-07T01:27:38;14.70;99.90
30134;DHT22;16946;49.984;10.672;2022-08-07T01:28:09;14.70;99.90
30134;DHT22;16946;49.984;10.672;2022-08-07T01:28:43;14.60;99.90
30134;DHT22;16946;49.984;10.672;2022-08-07T01:29:14;14.50;99.90
30134;DHT22;16946;49.984;10.672;2022-08-07T01:29:45;14.40;99.90
30134;DHT22;16946;49.984;10.672;2022-08-07T01:30:16;14.30;99.90
30134;DHT22;16946;49.984;10.672;2022-08-07T01:30:48;14.30;99.90
30134;DHT22;16946;49.984;10.672;2022-08-07T01:31:20;14.20;99.90
30134;DHT22;16946;49.984;10.672;2022-08-07T01:31:51;14.10;99.90
30134;DHT22;16946;49.984;10.672;2022-08-07T01:32:22;14.10;99.90
30134;DHT22;16946;49.984;10.672;2022-08-07T01:32:53;14.10;99.90
30134;DHT22;16946;49.984;10.672;2022-08-07T01:33:24;14.10;99.90
30134;DHT22;16946;49.984;10.672;2022-08-07T01:33:54;14.10;99.90
30134;DHT22;16946;49.984;10.672;2022-08-07T01:34:30;14.20;99.90
30134;DHT22;16946;49.984;10.672;2022-08-07T01:35:01;14.20;99.90
30134;DHT22;16946;49.984;10.672;2022-08-07T01:35:32;14.20;99.90
30134;DHT22;16946;49.984;10.672;2022-08-07T01:36:03;14.20;99.90
30134;DHT22;16946;49.984;10.672;2022-08-07T01:36:36;14.10;99.90
30134;DHT22;16946;49.984;10.672;2022-08-07T01:37:07;14.20;99.90
30134;DHT22;16946;49.984;10.672;2022-08-07T01:37:37;14.20;99.90
30134;DHT22;16946;49.984;10.672;2022-08-07T01:38:08;14.20;99.90
30134;DHT22;16946;49.984;10.672;2022-08-07T01:38:39;14.20;99.90
30134;DHT22;16946;49.984;10.672;2022-08-07T01:39:10;14.20;99.90
30134;DHT22;16946;49.984;10.672;2022-08-07T01:39:41;14.00;99.90
30134;DHT22;16946;49.984;10.672;2022-08-07T01:40:12;13.90;99.90
30134;DHT22;16946;49.984;10.672;2022-08-07T01:40:45;13.80;99.90
30134;DHT22;16946;49.984;10.672;2022-08-07T01:41:18;13.80;99.90
30134;DHT22;16946;49.984;10.672;2022-08-07T01:41:53;13.70;99.90
30134;DHT22;16946;49.984;10.672;2022-08-07T01:42:24;13.80;99.90
30134;DHT22;16946;49.984;10.672;2022-08-07T01:42:55;13.80;99.90
30134;DHT22;16946;49.984;10.672;2022-08-07T01:43:27;13.80;99.90
30134;DHT22;16946;49.984;10.672;2022-08-07T01:43:58;13.80;99.90
30134;DHT22;16946;49.984;10.672;2022-08-07T01:44:29;13.80;99.90
30134;DHT22;16946;49.984;10.672;2022-08-07T01:45:00;13.80;99.90
30134;DHT22;16946;49.984;10.672;2022-08-07T01:45:31;13.80;99.90
30134;DHT22;16946;49.984;10.672;2022-08-07T01:46:03;13.80;99.90
30134;DHT22;16946;49.984;10.672;2022-08-07T01:46:33;13.80;99.90
30134;DHT22;16946;49.984;10.672;2022-08-07T01:47:04;13.80;99.90
30134;DHT22;16946;49.984;10.672;2022-08-07T01:47:35;13.90;99.90
30134;DHT22;16946;49.984;10.672;2022-08-07T01:48:06;13.90;99.90
30134;DHT22;16946;49.984;10.672;2022-08-07T01:48:36;13.90;99.90
30134;DHT22;16946;49.984;10.672;2022-08-07T01:49:10;14.00;99.90
30134;DHT22;16946;49.984;10.672;2022-08-07T01:49:41;14.00;99.90
30134;DHT22;16946;49.984;10.672;2022-08-07T01:50:11;14.10;99.90
30134;DHT22;16946;49.984;10.672;2022-08-07T01:50:45;14.10;99.90
30134;DHT22;16946;49.984;10.672;2022-08-07T01:51:22;14.20;99.90
30134;DHT22;16946;49.984;10.672;2022-08-07T01:51:54;14.30;99.90
30134;DHT22;16946;49.984;10.672;2022-08-07T01:52:25;14.20;99.90
30134;DHT22;16946;49.984;10.672;2022-08-07T01:52:57;14.30;99.90
30134;DHT22;16946;49.984;10.672;2022-08-07T01:53:32;14.20;99.90
30134;DHT22;16946;49.984;10.672;2022-08-07T01:54:06;14.30;99.90
30134;DHT22;16946;49.984;10.672;2022-08-07T01:54:39;14.40;99.90
30134;DHT22;16946;49.984;10.672;2022-08-07T01:55:10;14.30;99.90
30134;DHT22;16946;49.984;10.672;2022-08-07T01:55:45;14.30;99.90
30134;DHT22;16946;49.984;10.672;2022-08-07T01:56:28;14.10;99.90
30134;DHT22;16946;49.984;10.672;2022-08-07T01:57:17;14.00;99.90
30134;DHT22;16946;49.984;10.672;2022-08-07T01:57:49;13.80;99.90
30134;DHT22;16946;49.984;10.672;2022-08-07T01:58:22;13.60;99.90
30134;DHT22;16946;49.984;10.672;2022-08-07T01:58:58;13.50;99.90
30134;DHT22;16946;49.984;10.672;2022-08-07T01:59:39;13.60;99.90
30134;DHT22;16946;49.984;10.672;2022-08-07T02:00:12;13.60;99.90
30134;DHT22;16946;49.984;10.672;2022-08-07T02:00:43;13.60;99.90
30134;DHT22;16946;49.984;10.672;2022-08-07T02:01:22;13.60;99.90
30134;DHT22;16946;49.984;10.672;2022-08-07T02:02:00;13.70;99.90
30134;DHT22;16946;49.984;10.672;2022-08-07T02:02:41;13.80;99.90
30134;DHT22;16946;49.984;10.672;2022-08-07T02:03:13;13.80;99.90
30134;DHT22;16946;49.984;10.672;2022-08-07T02:03:51;13.90;99.90
30134;DHT22;16946;49.984;10.672;2022-08-07T02:04:27;13.90;99.90
30134;DHT22;16946;49.984;10.672;2022-08-07T02:05:05;13.90;99.90
30134;DHT22;16946;49.984;10.672;2022-08-07T02:05:51;13.90;99.90
30134;DHT22;16946;49.984;10.672;2022-08-07T02:06:26;13.90;99.90
30134;DHT22;16946;49.984;10.672;2022-08-07T02:06:59;13.90;99.90
30134;DHT22;16946;49.984;10.672;2022-08-07T02:07:38;13.90;99.90
30134;DHT22;16946;49.984;10.672;2022-08-07T02:08:13;13.90;99.90
30134;DHT22;16946;49.984;10.672;2022-08-07T02:08:46;13.90;99.90
30134;DHT22;16946;49.984;10.672;2022-08-07T02:09:19;13.90;99.90
30134;DHT22;16946;49.984;10.672;2022-08-07T02:09:51;13.90;99.90
30134;DHT22;16946;49.984;10.672;2022-08-07T02:10:24;13.90;99.90
30134;DHT22;16946;49.984;10.672;2022-08-07T02:10:57;13.90;99.90
30134;DHT22;16946;49.984;10.672;2022-08-07T02:11:32;13.90;99.90
30134;DHT22;16946;49.984;10.672;2022-08-07T02:12:05;13.90;99.90
30134;DHT22;16946;49.984;10.672;2022-08-07T02:12:47;14.00;99.90
30134;DHT22;16946;49.984;10.672;2022-08-07T02:13:20;14.00;99.90
30134;DHT22;16946;49.984;10.672;2022-08-07T02:13:53;14.00;99.90
30134;DHT22;16946;49.984;10.672;2022-08-07T02:14:26;14.00;99.90
30134;DHT22;16946;49.984;10.672;2022-08-07T02:14:59;14.10;99.90
30134;DHT22;16946;49.984;10.672;2022-08-07T02:15:30;14.10;99.90
30134;DHT22;16946;49.984;10.672;2022-08-07T02:16:03;14.10;99.90
30134;DHT22;16946;49.984;10.672;2022-08-07T02:16:36;14.20;99.90
30134;DHT22;16946;49.984;10.672;2022-08-07T02:17:12;14.10;99.90
30134;DHT22;16946;49.984;10.672;2022-08-07T02:17:43;14.10;99.90
30134;DHT22;16946;49.984;10.672;2022-08-07T02:18:14;14.10;99.90
30134;DHT22;16946;49.984;10.672;2022-08-07T02:18:46;13.90;99.90
30134;DHT22;16946;49.984;10.672;2022-08-07T02:19:18;13.80;99.90
30134;DHT22;16946;49.984;10.672;2022-08-07T02:19:49;13.80;99.90
30134;DHT22;16946;49.984;10.672;2022-08-07T02:20:21;13.70;99.90
30134;DHT22;16946;49.984;10.672;2022-08-07T02:20:54;13.70;99.90
30134;DHT22;16946;49.984;10.672;2022-08-07T02:21:26;13.60;99.90
30134;DHT22;16946;49.984;10.672;2022-08-07T02:21:57;13.50;99.90
30134;DHT22;16946;49.984;10.672;2022-08-07T02:22:29;13.50;99.90
30134;DHT22;16946;49.984;10.672;2022-08-07T02:23:03;13.40;99.90
30134;DHT22;16946;49.984;10.672;2022-08-07T02:23:37;13.30;99.90
30134;DHT22;16946;49.984;10.672;2022-08-07T02:24:10;13.30;99.90
30134;DHT22;16946;49.984;10.672;2022-08-07T02:24:43;13.30;99.90
30134;DHT22;16946;49.984;10.672;2022-08-07T02:25:17;13.20;99.90
30134;DHT22;16946;49.984;10.672;2022-08-07T02:25:48;13.20;99.90
30134;DHT22;16946;49.984;10.672;2022-08-07T02:26:20;13.10;99.90
30134;DHT22;16946;49.984;10.672;2022-08-07T02:26:51;13.00;99.90
30134;DHT22;16946;49.984;10.672;2022-08-07T02:27:24;12.90;99.90
30134;DHT22;16946;49.984;10.672;2022-08-07T02:27:56;12.90;99.90
30134;DHT22;16946;49.984;10.672;2022-08-07T02:28:28;12.80;99.90
30134;DHT22;16946;49.984;10.672;2022-08-07T02:29:04;12.80;99.90
30134;DHT22;16946;49.984;10.672;2022-08-07T02:29:37;12.80;99.90
30134;DHT22;16946;49.984;10.672;2022-08-07T02:30:09;12.80;99.90
30134;DHT22;16946;49.984;10.672;2022-08-07T02:30:41;12.90;99.90
30134;DHT22;16946;49.984;10.672;2022-08-07T02:31:12;12.90;99.90
30134;DHT22;16946;49.984;10.672;2022-08-07T02:31:44;12.90;99.90
30134;DHT22;16946;49.984;10.672;2022-08-07T02:32:16;13.00;99.90
30134;DHT22;16946;49.984;10.672;2022-08-07T02:32:49;13.00;99.90
30134;DHT22;16946;49.984;10.672;2022-08-07T02:33:22;13.10;99.90
30134;DHT22;16946;49.984;10.672;2022-08-07T02:33:53;13.10;99.90
30134;DHT22;16946;49.984;10.672;2022-08-07T02:34:27;13.20;99.90
30134;DHT22;16946;49.984;10.672;2022-08-07T02:34:59;13.30;99.90
30134;DHT22;16946;49.984;10.672;2022-08-07T02:35:32;13.30;99.90
30134;DHT22;16946;49.984;10.672;2022-08-07T02:36:04;13.30;99.90
30134;DHT22;16946;49.984;10.672;2022-08-07T02:36:35;13.30;99.90
30134;DHT22;16946;49.984;10.672;2022-08-07T02:37:08;13.30;99.90
30134;DHT22;16946;49.984;10.672;2022-08-07T02:37:40;13.20;99.90
30134;DHT22;16946;49.984;10.672;2022-08-07T02:38:13;13.20;99.90
30134;DHT22;16946;49.984;10.672;2022-08-07T02:38:46;13.10;99.90
30134;DHT22;16946;49.984;10.672;2022-08-07T02:39:17;13.10;99.90
30134;DHT22;16946;49.984;10.672;2022-08-07T02:39:49;13.10;99.90
30134;DHT22;16946;49.984;10.672;2022-08-07T02:40:21;13.00;99.90
30134;DHT22;16946;49.984;10.672;2022-08-07T02:40:52;12.90;99.90
30134;DHT22;16946;49.984;10.672;2022-08-07T02:41:24;12.80;99.90
30134;DHT22;16946;49.984;10.672;2022-08-07T02:41:56;12.80;99.90
30134;DHT22;16946;49.984;10.672;2022-08-07T02:42:29;12.70;99.90
30134;DHT22;16946;49.984;10.672;2022-08-07T02:43:00;12.70;99.90
30134;DHT22;16946;49.984;10.672;2022-08-07T02:43:33;12.70;99.90
30134;DHT22;16946;49.984;10.672;2022-08-07T02:44:05;12.70;99.90
30134;DHT22;16946;49.984;10.672;2022-08-07T02:44:40;12.70;99.90
30134;DHT22;16946;49.984;10.672;2022-08-07T02:45:13;12.70;99.90
30134;DHT22;16946;49.984;10.672;2022-08-07T02:45:44;12.70;99.90
30134;DHT22;16946;49.984;10.672;2022-08-07T02:46:18;12.70;99.90
30134;DHT22;16946;49.984;10.672;2022-08-07T02:46:51;12.70;99.90
30134;DHT22;16946;49.984;10.672;2022-08-07T02:47:23;12.70;99.90
30134;DHT22;16946;49.984;10.672;2022-08-07T02:47:54;12.60;99.90
30134;DHT22;16946;49.984;10.672;2022-08-07T02:48:25;12.60;99.90
30134;DHT22;16946;49.984;10.672;2022-08-07T02:48:55;12.60;99.90
30134;DHT22;16946;49.984;10.672;2022-08-07T02:49:28;12.60;99.90
30134;DHT22;16946;49.984;10.672;2022-08-07T02:49:58;12.60;99.90
30134;DHT22;16946;49.984;10.672;2022-08-07T02:50:32;12.60;99.90
30134;DHT22;16946;49.984;10.672;2022-08-07T02:51:10;12.60;99.90
30134;DHT22;16946;49.984;10.672;2022-08-07T02:51:43;12.50;99.90
30134;DHT22;16946;49.984;10.672;2022-08-07T02:52:18;12.50;99.90
30134;DHT22;16946;49.984;10.672;2022-08-07T02:53:00;12.40;99.90
30134;DHT22;16946;49.984;10.672;2022-08-07T02:53:34;12.30;99.90
30134;DHT22;16946;49.984;10.672;2022-08-07T02:54:08;12.30;99.90
30134;DHT22;16946;49.984;10.672;2022-08-07T02:54:41;12.20;99.90
30134;DHT22;16946;49.984;10.672;2022-08-07T02:55:22;12.20;99.90
30134;DHT22;16946;49.984;10.672;2022-08-07T02:55:55;12.20;99.90
30134;DHT22;16946;49.984;10.672;2022-08-07T02:56:29;12.20;99.90
30134;DHT22;16946;49.984;10.672;2022-08-07T02:57:01;12.30;99.90
30134;DHT22;16946;49.984;10.672;2022-08-07T02:57:35;12.30;99.90
30134;DHT22;16946;49.984;10.672;2022-08-07T02:58:09;12.30;99.90
30134;DHT22;16946;49.984;10.672;2022-08-07T02:58:41;12.30;99.90
30134;DHT22;16946;49.984;10.672;2022-08-07T02:59:17;12.40;99.90
30134;DHT22;16946;49.984;10.672;2022-08-07T02:59:48;12.40;99.90
30134;DHT22;16946;49.984;10.672;2022-08-07T03:00:21;12.40;99.90
30134;DHT22;16946;49.984;10.672;2022-08-07T03:00:55;12.50;99.90
30134;DHT22;16946;49.984;10.672;2022-08-07T03:01:26;12.50;99.90
30134;DHT22;16946;49.984;10.672;2022-08-07T03:01:58;12.50;99.90
30134;DHT22;16946;49.984;10.672;2022-08-07T03:02:29;12.60;99.90
30134;DHT22;16946;49.984;10.672;2022-08-07T03:03:04;12.60;99.90
30134;DHT22;16946;49.984;10.672;2022-08-07T03:03:36;12.60;99.90
30134;DHT22;16946;49.984;10.672;2022-08-07T03:04:08;12.60;99.90
30134;DHT22;16946;49.984;10.672;2022-08-07T03:04:41;12.60;99.90
30134;DHT22;16946;49.984;10.672;2022-08-07T03:05:13;12.60;99.90
30134;DHT22;16946;49.984;10.672;2022-08-07T03:05:45;12.60;99.90
30134;DHT22;16946;49.984;10.672;2022-08-07T03:06:18;12.60;99.90
30134;DHT22;16946;49.984;10.672;2022-08-07T03:06:50;12.60;99.90
30134;DHT22;16946;49.984;10.672;2022-08-07T03:07:21;12.60;99.90
30134;DHT22;16946;49.984;10.672;2022-08-07T03:07:53;12.60;99.90
30134;DHT22;16946;49.984;10.672;2022-08-07T03:08:25;12.60;99.90
30134;DHT22;16946;49.984;10.672;2022-08-07T03:08:55;12.50;99.90
30134;DHT22;16946;49.984;10.672;2022-08-07T03:09:26;12.40;99.90
30134;DHT22;16946;49.984;10.672;2022-08-07T03:09:57;12.40;99.90
30134;DHT22;16946;49.984;10.672;2022-08-07T03:10:29;12.40;99.90
30134;DHT22;16946;49.984;10.672;2022-08-07T03:11:01;12.40;99.90
30134;DHT22;16946;49.984;10.672;2022-08-07T03:11:32;12.40;99.90
30134;DHT22;16946;49.984;10.672;2022-08-07T03:12:04;12.30;99.90
30134;DHT22;16946;49.984;10.672;2022-08-07T03:12:36;12.30;99.90
30134;DHT22;16946;49.984;10.672;2022-08-07T03:13:07;12.30;99.90
30134;DHT22;16946;49.984;10.672;2022-08-07T03:13:40;12.40;99.90
30134;DHT22;16946;49.984;10.672;2022-08-07T03:14:11;12.40;99.90
30134;DHT22;16946;49.984;10.672;2022-08-07T03:14:43;12.40;99.90
30134;DHT22;16946;49.984;10.672;2022-08-07T03:15:13;12.40;99.90
30134;DHT22;16946;49.984;10.672;2022-08-07T03:15:45;12.40;99.90
30134;DHT22;16946;49.984;10.672;2022-08-07T03:16:16;12.50;99.90
30134;DHT22;16946;49.984;10.672;2022-08-07T03:16:47;12.50;99.90
30134;DHT22;16946;49.984;10.672;2022-08-07T03:17:18;12.60;99.90
30134;DHT22;16946;49.984;10.672;2022-08-07T03:17:50;12.60;99.90
30134;DHT22;16946;49.984;10.672;2022-08-07T03:18:21;12.70;99.90
30134;DHT22;16946;49.984;10.672;2022-08-07T03:18:52;12.70;99.90
30134;DHT22;16946;49.984;10.672;2022-08-07T03:19:23;12.70;99.90